Latest Weather Observations for Cairns

IDQ60801

Issued at 9:35 am EST Monday 21 April 2014 (issued every 30 minutes, with the page automatically refreshed every 10 minutes)

About weather observations | Map of weather stations | Latest weather observations for QLD | Other Formats
Station Details ID: 031011 Name: CAIRNS AERO Lat: -16.87 Lon: 145.75 Height: 2.22 m
Data from the previous 72 hours. | See also: Recent months at Cairns
Date/Time
EST
Temp
°C
App
Temp
°C
Dew
Point
Rel
Hum
%
Delta-T
°C
Wind Press
QNH
hPa
Press
MSL
hPa
Rain
since 9 am
mm
Dir
 
Spd
km/h
Gust
km/h
Spd
kts
Gust
kts
21/09:30am 25.0 25.0 19.7 72 3.4 SSE 19 28 10 15 1015.9 - 0.0
21/09:00am 25.1 24.6 19.0 69 3.9 S 20 30 11 16 1015.6 1015.5 0.0
21/08:30am 25.0 24.3 18.7 68 4.0 S 20 30 11 16 1015.5 - 0.0
21/08:00am 24.7 24.0 18.7 69 3.8 S 20 35 11 19 1015.4 - 0.0
21/07:30am 24.7 23.6 18.7 69 3.8 SSE 22 30 12 16 1015.1 - 0.0
21/07:00am 24.5 24.3 18.5 69 3.8 S 17 30 9 16 1014.9 - 0.0
21/06:30am 24.3 23.7 18.4 69 3.7 S 19 26 10 14 1014.5 - 0.0
21/06:00am 24.2 23.6 18.5 70 3.6 SSE 19 28 10 15 1014.2 1014.1 0.0
21/05:30am 24.2 24.0 18.5 70 3.6 S 17 26 9 14 1013.8 - 0.0
21/05:00am 24.2 23.7 18.7 71 3.5 SSE 19 26 10 14 1013.7 - 0.0
21/04:30am 23.8 24.0 19.4 76 2.8 S 17 28 9 15 1013.5 - 0.0
21/04:00am 23.6 23.5 19.5 78 2.6 S 19 28 10 15 1013.4 - 0.0
21/03:30am 23.7 24.0 19.5 77 2.7 S 17 26 9 14 1013.3 - 0.0
21/03:00am 23.9 23.5 19.4 76 2.9 S 20 32 11 17 1013.1 1013.0 0.0
21/02:30am 24.0 24.2 19.3 75 3.0 S 17 30 9 16 1013.3 - 0.0
21/02:00am 23.7 23.3 19.3 76 2.8 SSE 20 28 11 15 1013.5 - 0.0
21/01:30am 24.2 23.8 18.8 72 3.4 S 19 30 10 16 1013.7 - 0.0
21/01:00am 24.2 23.5 18.7 71 3.5 S 20 33 11 18 1014.1 - 0.0
21/12:30am 24.0 23.1 18.3 70 3.6 SSE 20 30 11 16 1014.4 - 0.0
21/12:00am 23.8 23.3 17.9 69 3.7 S 17 30 9 16 1014.7 1014.6 0.0
 
Date/Time
EST
Temp
°C
App
Temp
°C
Dew
Point
Rel
Hum
%
Delta-T
°C
Wind Press
QNH
hPa
Press
MSL
hPa
Rain
since 9 am
mm
Dir
 
Spd
km/h
Gust
km/h
Spd
kts
Gust
kts
20/11:30pm 24.0 23.4 17.6 67 4.0 SSE 17 26 9 14 1014.9 - 0.0
20/11:00pm 24.2 23.5 17.4 65 4.2 SSE 17 28 9 15 1014.9 - 0.0
20/10:30pm 24.1 23.0 17.3 65 4.2 S 19 30 10 16 1015.1 - 0.0
20/10:00pm 24.4 23.2 17.1 63 4.5 S 19 32 10 17 1015.1 - 0.0
20/09:30pm 24.4 23.7 17.3 64 4.4 S 17 28 9 15 1015.3 - 0.0
20/09:00pm 24.3 23.2 17.4 65 4.3 S 19 26 10 14 1015.4 1015.3 0.0
20/08:30pm 24.6 23.4 17.4 64 4.5 S 20 28 11 15 1015.3 - 0.0
20/08:00pm 24.8 23.1 17.2 62 4.7 S 22 32 12 17 1015.2 - 0.0
20/07:30pm 24.9 23.2 17.3 62 4.7 S 22 30 12 16 1014.6 - 0.0
20/07:00pm 25.4 23.6 17.0 59 5.2 S 22 32 12 17 1014.4 - 0.0
20/06:30pm 25.7 23.5 16.8 58 5.5 SSE 24 32 13 17 1014.2 - 0.0
20/06:00pm 25.8 22.5 17.1 58 5.4 SE 30 35 16 19 1014.0 1013.9 0.0
20/05:30pm 26.6 23.7 17.1 56 5.9 SSE 28 33 15 18 1013.8 - 0.0
20/05:00pm 26.6 22.8 16.6 54 6.2 SE 32 39 17 21 1013.5 - 0.0
20/04:30pm 26.9 22.9 16.6 53 6.4 SSE 33 41 18 22 1013.1 - 0.0
20/04:00pm 26.9 23.0 16.4 52 6.5 SE 32 41 17 22 1012.9 - 0.0
20/03:30pm 27.6 23.4 16.1 49 7.1 SE 33 43 18 23 1012.7 - 0.0
20/03:00pm 27.4 23.1 16.0 49 7.0 SE 33 41 18 22 1012.6 1012.5 0.0
20/02:30pm 27.7 23.7 16.6 50 6.9 SE 33 41 18 22 1012.6 - 0.0
20/02:00pm 28.2 24.5 17.0 50 7.0 SE 32 39 17 21 1013.0 - 0.0
20/01:30pm 27.8 23.7 15.9 48 7.3 SSE 32 39 17 21 1013.2 - 0.0
20/01:00pm 28.0 24.3 17.0 51 6.9 SSE 32 43 17 23 1013.6 - 0.0
20/12:30pm 27.7 23.9 16.6 50 6.9 SE 32 41 17 22 1013.9 - 0.0
20/12:00pm 27.7 24.0 17.0 52 6.7 SSE 32 43 17 23 1014.3 1014.2 0.0
20/11:30am 27.9 24.5 17.6 53 6.5 SSE 32 41 17 22 1014.8 - 0.0
20/11:00am 27.3 24.2 17.6 55 6.1 SE 30 39 16 21 1015.1 - 0.0
20/10:30am 26.6 24.6 17.3 56 5.8 SE 24 32 13 17 1015.5 - 0.0
20/10:00am 26.0 25.8 18.6 63 4.7 SSE 17 24 9 13 1015.6 - 0.0
20/09:30am 24.6 25.1 18.4 68 3.9 S 13 19 7 10 1015.5 - 0.0
20/09:00am 24.3 24.1 18.6 70 3.6 S 17 22 9 12 1015.1 1015.0 0.0
20/08:30am 24.4 23.6 18.4 69 3.8 S 20 28 11 15 1014.8 - 0.0
20/08:00am 23.8 23.6 18.6 72 3.3 S 17 28 9 15 1014.5 - 0.0
20/07:30am 23.5 23.3 18.6 74 3.1 S 17 24 9 13 1014.4 - 0.0
20/07:00am 23.5 23.6 18.4 73 3.2 S 15 22 8 12 1014.3 - 0.0
20/06:30am 22.9 23.1 18.6 77 2.7 S 15 26 8 14 1013.8 - 0.0
20/06:00am 22.2 22.2 18.9 81 2.1 SSE 17 20 9 11 1013.6 1013.5 0.0
20/05:30am 23.3 23.5 18.5 74 3.0 S 15 24 8 13 1013.2 - 0.0
20/05:00am 22.0 22.3 18.8 82 2.0 SSE 15 20 8 11 1013.1 - 0.0
20/04:30am 22.0 22.6 18.7 81 2.1 SE 13 19 7 10 1012.9 - 0.0
20/04:00am 22.0 21.9 18.7 81 2.1 SE 17 19 9 10 1013.0 - 0.0
20/03:30am 23.0 23.1 18.4 75 2.9 SSE 15 20 8 11 1012.9 - 0.0
20/03:00am 22.0 21.4 18.8 82 2.0 SSE 20 26 11 14 1013.3 1013.2 0.0
20/02:30am 21.6 21.1 19.2 86 1.5 SE 20 24 11 13 1013.1 - 0.0
20/02:00am 21.8 22.2 19.1 84 1.7 SE 15 19 8 10 1013.3 - 0.0
20/01:30am 21.9 22.8 19.2 85 1.7 SE 13 19 7 10 1013.4 - 0.0
20/01:00am 22.1 21.8 19.1 83 1.9 SE 19 22 10 12 1013.8 - 0.0
20/12:30am 22.3 22.2 19.5 84 1.8 SE 19 22 10 12 1014.1 - 0.0
20/12:00am 24.1 24.1 18.2 69 3.7 S 15 22 8 12 1014.2 1014.1 0.0
 
Date/Time
EST
Temp
°C
App
Temp
°C
Dew
Point
Rel
Hum
%
Delta-T
°C
Wind Press
QNH
hPa
Press
MSL
hPa
Rain
since 9 am
mm
Dir
 
Spd
km/h
Gust
km/h
Spd
kts
Gust
kts
19/11:30pm 23.7 24.3 18.5 72 3.3 SSE 13 19 7 10 1014.7 - 0.0
19/11:00pm 24.0 24.5 18.3 70 3.6 S 13 19 7 10 1014.7 - 0.0
19/10:30pm 24.1 24.9 18.2 69 3.7 S 11 17 6 9 1015.0 - 0.0
19/10:00pm 23.8 24.8 18.6 72 3.3 S 11 15 6 8 1015.2 - 0.0
19/09:30pm 24.1 24.7 18.6 71 3.5 S 13 19 7 10 1015.2 - 0.0
19/09:00pm 24.2 25.0 19.0 72 3.3 SE 13 15 7 8 1015.1 1015.0 0.0
19/08:30pm 24.2 25.3 18.8 72 3.4 SSE 11 15 6 8 1014.9 - 0.0
19/08:00pm 24.2 25.4 19.0 72 3.3 SSE 11 19 6 10 1014.7 - 0.0
19/07:30pm 24.3 25.1 19.0 72 3.4 S 13 17 7 9 1014.4 - 0.0
19/07:00pm 24.5 25.4 19.2 72 3.4 SSE 13 15 7 8 1014.1 - 0.0
19/06:30pm 24.8 25.0 19.3 71 3.5 SE 17 19 9 10 1013.7 - 0.0
19/06:00pm 25.5 25.2 19.1 67 4.1 SE 19 26 10 14 1013.5 1013.4 0.0
19/05:30pm 26.4 24.6 18.7 62 4.9 SE 26 32 14 17 1013.2 - 0.0
19/05:00pm 27.2 25.3 18.6 59 5.5 ESE 26 35 14 19 1013.0 - 0.0
19/04:30pm 27.4 24.9 18.1 57 5.9 ESE 28 33 15 18 1012.7 - 0.0
19/04:00pm 28.1 25.5 17.7 53 6.6 SE 28 33 15 18 1012.5 - 0.0
19/03:30pm 28.4 25.9 16.1 47 7.6 SE 24 30 13 16 1012.5 - 0.0
19/03:00pm 28.6 26.4 17.9 52 6.8 ESE 26 33 14 18 1012.5 1012.4 0.0
19/02:30pm 28.8 27.5 18.1 52 6.8 SE 22 30 12 16 1012.8 - 0.0
19/02:00pm 28.7 27.8 19.1 56 6.2 ESE 22 32 12 17 1013.1 - 0.0
19/01:30pm 28.9 27.4 19.4 56 6.2 ESE 26 35 14 19 1013.6 - 0.0
19/01:00pm 28.2 25.8 18.3 55 6.3 ESE 28 35 15 19 1014.0 - 0.0
19/12:30pm 29.5 28.4 19.5 55 6.5 ESE 24 30 13 16 1014.3 - 0.0
19/12:00pm 28.4 26.8 18.4 54 6.4 ESE 24 30 13 16 1014.9 1014.8 0.0
19/11:30am 28.6 27.6 19.7 58 5.8 ESE 24 33 13 18 1015.3 - 0.0
19/11:00am 27.8 28.0 19.3 60 5.5 SE 17 28 9 15 1015.6 - 0.0
19/10:30am 26.0 27.8 21.8 77 2.8 SE 15 24 8 13 1015.9 - 0.0
19/10:00am 26.5 27.3 20.7 70 3.8 SSE 17 22 9 12 1016.1 - 0.0
19/09:30am 26.6 27.7 21.2 72 3.6 SSE 17 24 9 13 1015.9 - 0.0
19/09:00am 26.1 27.3 20.6 71 3.6 S 15 20 8 11 1015.7 1015.6 0.6
19/08:30am 25.6 25.6 20.2 72 3.5 S 20 30 11 16 1015.4 - 0.6
19/08:00am 25.1 25.7 20.3 74 3.1 S 17 28 9 15 1015.3 - 0.6
19/07:30am 25.0 26.5 20.6 76 2.9 SSE 13 19 7 10 1015.0 - 0.6
19/07:00am 24.1 25.6 19.7 76 2.8 SSE 11 17 6 9 1014.8 - 0.6
19/06:30am 24.0 24.8 19.1 74 3.1 SSE 13 17 7 9 1014.6 - 0.6
19/06:00am 24.6 25.4 19.1 71 3.5 SSW 13 19 7 10 1014.4 1014.3 0.6
19/05:30am 24.7 26.0 19.4 72 3.4 S 11 20 6 11 1014.1 - 0.6
19/05:00am 24.2 24.8 19.5 75 3.0 S 15 20 8 11 1014.0 - 0.6
19/04:30am 23.7 25.9 21.1 85 1.7 ESE 11 17 6 9 1014.0 - 0.6
19/04:00am 23.2 25.0 21.1 88 1.4 ESE 13 15 7 8 1013.9 - 0.6
19/03:30am 24.7 27.0 20.6 78 2.7 S 9 15 5 8 1014.0 - 0.6
19/03:00am 24.0 25.9 20.5 81 2.3 S 11 17 6 9 1014.1 1014.0 0.6
19/02:30am 24.4 26.1 20.2 77 2.7 SSE 11 15 6 8 1014.3 - 0.6
19/02:00am 23.7 25.6 20.5 82 2.1 SSE 11 15 6 8 1014.3 - 0.6
19/01:30am 24.0 25.5 20.5 81 2.3 SE 13 17 7 9 1014.5 - 0.6
19/01:00am 24.0 25.7 20.9 83 2.0 SSE 13 17 7 9 1014.9 - 0.6
19/12:30am 23.6 26.0 20.8 84 1.8 SE 9 15 5 8 1015.3 - 0.6
19/12:00am 23.8 25.1 20.9 84 1.9 SE 15 17 8 9 1015.5 1015.4 0.6
 
Date/Time
EST
Temp
°C
App
Temp
°C
Dew
Point
Rel
Hum
%
Delta-T
°C
Wind Press
QNH
hPa
Press
MSL
hPa
Rain
since 9 am
mm
Dir
 
Spd
km/h
Gust
km/h
Spd
kts
Gust
kts
18/11:30pm 24.3 26.3 20.8 81 2.3 S 11 17 6 9 1015.7 - 0.6
18/11:00pm 24.7 28.7 20.6 78 2.7 CALM 0 9 0 5 1015.8 - 0.6
18/10:30pm 25.0 26.4 20.4 75 3.0 S 13 19 7 10 1015.9 - 0.6
18/10:00pm 25.1 26.1 20.3 74 3.1 S 15 24 8 13 1016.0 - 0.6
18/09:30pm 25.4 26.6 20.7 75 3.1 S 15 19 8 10 1016.0 - 0.6
18/09:00pm 25.1 27.0 20.5 75 3.0 S 11 17 6 9 1016.0 1015.9 0.6
18/08:30pm 25.0 26.7 20.9 78 2.7 SSE 13 19 7 10 1015.9 - 0.6
18/08:00pm 24.9 26.8 20.6 77 2.8 S 11 17 6 9 1015.6 - 0.6
18/07:30pm 25.0 26.8 20.4 75 3.0 S 11 13 6 7 1014.9 - 0.6
18/07:00pm 24.5 27.4 21.0 81 2.3 SE 7 11 4 6 1014.6 - 0.6
18/06:30pm 24.6 27.4 20.9 80 2.4 SSE 7 11 4 6 1014.3 - 0.6
18/06:00pm 25.2 27.5 20.6 75 3.0 SSE 9 13 5 7 1014.0 1013.9 0.6
18/05:30pm 25.2 26.5 20.1 73 3.3 SSE 13 15 7 8 1013.7 - 0.6
18/05:00pm 25.9 24.9 19.7 68 4.0 SSE 24 30 13 16 1013.4 - 0.6
18/04:30pm 26.6 25.0 19.3 64 4.7 E 26 35 14 19 1013.3 - 0.6
18/04:00pm 27.7 27.8 20.4 64 4.8 SE 20 28 11 15 1012.9 - 0.6
18/03:30pm 28.3 27.9 20.2 61 5.3 SE 22 30 12 16 1012.7 - 0.4
18/03:00pm 28.6 28.5 19.9 59 5.7 ESE 20 28 11 15 1012.8 1012.7 0.4
18/02:30pm 28.5 28.4 19.9 59 5.6 SE 20 28 11 15 1012.9 - 0.4
18/02:00pm 27.0 28.3 22.7 77 2.9 ESE 20 28 11 15 1012.9 - 0.4
18/01:30pm 27.3 30.1 23.7 81 2.5 SSW 15 24 8 13 1013.2 - 0.4
18/01:00pm 25.6 26.3 22.9 85 1.8 SE 24 28 13 15 1013.6 - 0.4
18/12:30pm 27.3 28.0 21.6 71 3.8 SSE 20 30 11 16 1013.8 - 0.0
18/12:00pm 27.7 27.5 21.2 67 4.3 SSE 24 30 13 16 1014.1 1014.0 0.0
18/11:30am 28.3 28.8 21.1 65 4.8 SE 20 32 11 17 1014.3 - 0.0
18/11:00am 28.0 27.6 21.6 68 4.3 SE 26 35 14 19 1014.8 - 0.0
18/10:30am 28.2 28.1 21.5 67 4.5 SE 24 32 13 17 1015.1 - 0.0
18/10:00am 27.6 29.3 22.4 73 3.5 SSE 17 22 9 12 1015.3 - 0.0

Other Formats:

Comma delimited format used in spreadsheet applications
http://www.bom.gov.au/fwo/IDQ60801/IDQ60801.94287.axf

JavaScript Object Notation format (JSON) in row-major order
http://www.bom.gov.au/fwo/IDQ60801/IDQ60801.94287.json